Terminal Aerodrome Forecast
Issued by NWS

Home | Current Version | Previous Version | Text Only | Print | Product List | Glossary On
Versions: 1 2 3 4 5 6 7 8 9 10 11 12 13 14 15 16
000
FTUS43 KGRR 300245 AAA
TAFAZO
TAF AMD
KAZO 300245Z 3003/3024 18007KT P6SM VCSH SCT050 BKN100
      TEMPO 3003/3004 2SM TSRA OVC035CB
     FM300900 23005KT 5SM BR VCSH OVC015
     FM301200 31005KT 2SM -RA BR OVC005
     FM302200 36010G20KT 2SM -RA BR OVC005=

USA.gov is the U.S. government's official web portal to all federal, state and local government web resources and services.